Ana Sayfa
METAR-TAF:

METAR-TAF

Havaalanları :

Muskoka, Ontario, Kanada

Enlem: 44-58N, Boylam: 079-18W, yükseklik: 280 m

Güncel hava durumu gözlemi

Rapor saat 05:00 UTC de 44 dakika önce yapıldı.
Rüzgar kuzey/kuzeybatıdan 7 kt
Sıcaklık 2°C
Nem 69%
Basınç 1016 hPa
Görüş mesafesi: 14.5 km
Açık gökyüzü

METAR: CYQA 030500Z AUTO 33007KT 9SM CLR 02/M03 A2999 RMK SLP165

Saat: 01:44 (05:44 UTC)

Tahmin

Rapor saat 19:38 UTC de 10 saat ve 6 dakika önce yapıldı.
Ayın 02'si saat 20 UTC'den ayın 03'si saat 02 UTC'ye kadar geçerli Tahmin
Rüzgar batı/kuzeybatıdan 10 kt ve 20 kt'a kadar ani rüzgarlar
Görüş mesafesi: 10 km
Açık gökyüzü
Dönüşüyor
ayın 02'si saat 22 UTC'den ayın 02'si saat 24 UTC'ye kadar
Rüzgar kuzey/kuzeybatıdan 6 kt

TAF: CYQA 021938Z 0220/0302 30010G20KT P6SM SKC BECMG 0222/0224 33006KT RMK FCST BASED ON AUTO OBS. NXT FCST WILL BE ISSUED AT 031145Z

4.000'den fazla havaalanı için hava durumu gözlemleri ve tahminleri (METAR ve TAF raporları).

Kullanılabilir istasyonlar harita üzerinde sarı ve kırmızı noktalarla gösterilir.

İstasyonun adını görmek için fareyi noktanın üzerinde gezdirin.

Sonrasında hava gözlem ve tahminlerini görmek için tıklayın.

Haritayı değiştirmek için: yaklaştırmak için siyah artı işaretli yeşil düğmeye ve uzaklaştırmak için de eksi işaretli düğmeye hızla tıklayın; bitişik haritalar için yeşil okları kullanın.


METAR-TAF: